YSCBYWLM

Guest
Details From YSCB - Canberra
To YWLM - Williamtown
Flight Number -
Tags generated
Created
Modified
Stats Distance 204 nm / 378 km
Max Altitude 19,700 ft / 6,005 m
Waypoints 3
Social Downloads 0
Likes 0
Share VATSIM

Download

Looking for another format? Having issues loading an existing format? Contact us
Advertisement - Login to hide

Notes

Basic altitude profile: - Ascent Rate: 2500ft/min - Ascent Speed: 250kts - Cruise Altitude: 21000ft - Cruise Speed: 420kts - Descent Rate: 1500ft/min - Descent Speed: 250kts Options: - Use NATs: yes - Use PACOTS: yes - Use low airways: yes - Use high airways: yes

Route

YSCB BANTU YWLM

ID Type Via Altitude Latitude Longitude Leg Dist Tot Dist Heading (true) Name
O YSCB APT - 0 ft / 0 m -35.30548˚ 149.19334˚ - 0 nm - Canberra
BANTU FIX - 19,700 ft / 6,005 m -34.21250˚ 150.90389˚ 106 nm 106 nm 53° / 52° -
O YWLM APT - 0 ft / 0 m -32.79588˚ 151.83480˚ 97 nm 203 nm 29° / 28° Williamtown

Altitude Profile

Advertisement - Login to hide

Weather


0- 5 10 15 20 25 30 35+ Temperature / ° C

Clouds and Precipitation
Forecast for 2018-05-25 06:00 UTC. Updated 3 hours ago

Ground ~20,000 ft ~40,000 ft Winds

YSCB

Details ICAO YSCB (CBR)
Name Canberra
Region Australia
Timezone Australia/Sydney (UTC+10.0)
Stats Elevation 1,887 ft / 575 m (AMSL)
Location -35.305478° 149.193342°
Runways 2
Magnetic Variation 12.407° E

METAR

YSCB 250800Z 08006KT CAVOK 09/03 Q1028 NOSIG

Decode

TAF

TAF AMD YSCB 250528Z 2506/2606 06008KT CAVOK PROB30 2516/2523 2000 BR SCT001

Decode

Departure Runways

ID Width Length Bearing (true) Bearing (mag) Surface Threshold Offset Overrun Length
12 148 ft / 45 m 5,508 ft / 1,679 m 130.00° 117.59° Asphalt 0 ft / 0 m 0 ft / 0 m
17 148 ft / 45 m 10,793 ft / 3,290 m 180.00° 167.59° Asphalt 0 ft / 0 m 0 ft / 0 m
30 148 ft / 45 m 5,508 ft / 1,679 m 310.00° 297.59° Asphalt 226 ft / 69 m 0 ft / 0 m
35 148 ft / 45 m 10,793 ft / 3,290 m 0.00° 347.59° Asphalt 1,998 ft / 609 m 0 ft / 0 m

YWLM

Details ICAO YWLM (NTL)
Name Williamtown
Region Australia
Timezone Australia/Sydney (UTC+10.0)
Stats Elevation 31 ft / 9 m (AMSL)
Location -32.795878° 151.834796°
Runways 1
Magnetic Variation 12.391° E

METAR

YWLM 250800Z AUTO 18007KT 9999 // SCT060 15/10 Q1027

Decode

TAF

TAF YWLM 250516Z 2506/2606 17012KT 9999 SCT040 FM251000 VRB03KT 9999 SCT030 FM252200 27008KT 9999 FEW020 FM260200 13010KT 9999 SCT030 PROB30 2518/2522 0500 FG

Decode

Destination Runways

ID Width Length Bearing (true) Bearing (mag) Surface Threshold Offset Overrun Length
12 148 ft / 45 m 8,001 ft / 2,439 m 130.44° 118.05° Asphalt 0 ft / 0 m 1,000 ft / 305 m
30 148 ft / 45 m 8,001 ft / 2,439 m 310.43° 298.04° Asphalt 0 ft / 0 m 1,000 ft / 305 m

Approach Navaids

Runway Type Ident Frequency Range Bearing (true) Bearing (mag) Slope Elevation
12 Localiser IWM 110.50 MHz 18 nm / 33 km 130.68° 118.29° - 31 ft / 9 m (AMSL)
12 Glidescope IWM 110.50 MHz 10 nm / 19 km 130.44° 118.05° 3.00° 31 ft / 9 m (AMSL)

Popular Alternatives